Chippewa Valley Regional Airport
KEAU : now visible

Airfield :











YOU CAN JOIN US ON...

 
LOGIN :

Register | Disclaimer

   EN    FR    IT 

 









Legend :    VFR   Marginal VFR   IFR   Intensive IFR   Very Intensive IFR
Visi :
Ceiling :
>= 8 km
>= 3000ft
5 to 8 km
1000 to 3000 ft
1500m to 5 km
500 to 1000 ft
800 to 1500m
200 to 500 ft
< 800m
< 200 ft
Symbols :   Thunderstorms  Fog  Heavy snow  Heavy precipitations  Wind > 20 kt






- Airport Elevation : 913 ft
- IATA code : EAU


KEAU - Chippewa Valley Regional

CURRENT METAR :
  • 142056Z 30012G21KT 10SM OVC019 M08/M13 A2983 RMK AO2 SLP118 60000 T10781128 53009

EXPIRED METARs :
  • 141956Z 29011KT 10SM OVC017 M07/M12 A2982 RMK AO2 SLP112 T10721122
  • 141856Z 28010KT 7SM OVC017 M07/M11 A2981 RMK AO2 SNE22 SLP109 P0000 T10671111

TAF KEAU
Valid from the 14 at 18:00 until the 15 at 18:00 UTC


141742Z 1418/1518 30010KT 6SM -SHSN OVC012
FM142230 30007KT P6SM SKC
FM150700 00000KT P6SM SKC
FM151600 00000KT P6SM SCT070



MET'MAP, your aeronautical weather chart ! - Copyright ORBIFLY December 2007 - Disclaimer

ORBIFLY MET'MAP TEAM :

Programming & Development : Alexandra Zaïnal
Concept & original design : Baudouin d'Aumeries
Assistance for programming : Marc-Olivier Méhu
Technical & hardware support : Manuel Goepfert

Contact : metmap@orbifly.com




SOURCES & CREDITS :

   NOAA       Earth
Advisory